Time;durP1;ratioP1;P1;durP2;ratioP2;P2;SDS_P1;SDS_P2;PMS_P1;PMS_P2;Temp;Humidity;BMP_temperature;BMP_pressure;BME280_temperature;BME280_humidity;BME280_pressure;Samples;Min_cycle;Max_cycle;Signal;HPM_P1;HPM_P2
2022/12/19 00:01:40;;;;;;;29.10;17.02;;;;;;;;;;5113056;28;20421;-88
2022/12/19 00:04:07;;;;;;;26.42;16.30;;;;;;;;;;5113454;28;20028;-84
2022/12/19 00:06:33;;;;;;;26.10;15.38;;;;;;;;;;5111789;28;20046;-82
2022/12/19 00:08:59;;;;;;;28.63;16.17;;;;;;;;;;5111895;28;20023;-85
2022/12/19 00:11:26;;;;;;;29.75;16.45;;;;;;;;;;5112995;28;20055;-85
2022/12/19 00:13:53;;;;;;;28.65;16.30;;;;;;;;;;5112281;28;20027;-87
2022/12/19 00:16:21;;;;;;;26.02;16.15;;;;;;;;;;5112141;28;20066;-87
2022/12/19 00:18:48;;;;;;;24.63;15.02;;;;;;;;;;5113278;28;20027;-84
2022/12/19 00:21:18;;;;;;;30.25;16.10;;;;;;;;;;5113304;28;20466;-87
2022/12/19 00:23:45;;;;;;;25.65;16.30;;;;;;;;;;5112984;28;20028;-86
2022/12/19 00:26:19;;;;;;;24.15;14.45;;;;;;;;;;5113142;28;20595;-85
2022/12/19 00:28:46;;;;;;;26.80;16.45;;;;;;;;;;5112231;28;20024;-83
2022/12/19 00:31:12;;;;;;;25.83;15.32;;;;;;;;;;5113238;28;20471;-87
2022/12/19 00:33:38;;;;;;;25.77;16.00;;;;;;;;;;5094939;28;20506;-86
2022/12/19 00:36:06;;;;;;;24.58;15.65;;;;;;;;;;5113028;28;20012;-83
2022/12/19 00:38:32;;;;;;;24.45;15.65;;;;;;;;;;5111754;28;20046;-86
2022/12/19 00:41:17;;;;;;;23.95;13.88;;;;;;;;;;5111812;28;20115;-85
2022/12/19 00:43:43;;;;;;;23.10;13.38;;;;;;;;;;5111829;28;20024;-83
2022/12/19 00:46:11;;;;;;;26.60;14.43;;;;;;;;;;5112782;28;20026;-87
2022/12/19 00:48:37;;;;;;;23.35;14.18;;;;;;;;;;5112881;28;20122;-84
2022/12/19 00:51:04;;;;;;;23.73;13.73;;;;;;;;;;5112612;28;20028;-81
2022/12/19 00:53:30;;;;;;;28.52;15.40;;;;;;;;;;5112954;28;20026;-83
2022/12/19 00:55:56;;;;;;;24.27;15.60;;;;;;;;;;5111745;28;20427;-85
2022/12/19 00:58:23;;;;;;;26.73;14.23;;;;;;;;;;5111455;28;20043;-84
2022/12/19 01:00:49;;;;;;;22.98;14.50;;;;;;;;;;5112697;28;20088;-85
2022/12/19 01:03:15;;;;;;;28.40;15.85;;;;;;;;;;5112668;28;20073;-83
2022/12/19 01:05:41;;;;;;;26.25;15.95;;;;;;;;;;5112684;28;20241;-86
2022/12/19 01:08:07;;;;;;;25.52;15.55;;;;;;;;;;5112574;28;20068;-82
2022/12/19 01:10:33;;;;;;;24.90;15.88;;;;;;;;;;5113842;28;20098;-87
2022/12/19 01:12:59;;;;;;;25.80;14.20;;;;;;;;;;5115232;28;20478;-85
2022/12/19 01:15:25;;;;;;;29.13;17.17;;;;;;;;;;5116322;28;20513;-84
2022/12/19 01:17:51;;;;;;;29.58;16.83;;;;;;;;;;5116391;28;20028;-87
2022/12/19 01:20:19;;;;;;;27.67;16.67;;;;;;;;;;5116376;28;20023;-84
2022/12/19 01:22:45;;;;;;;28.45;17.33;;;;;;;;;;5116431;28;20028;-86
2022/12/19 01:25:11;;;;;;;25.50;14.30;;;;;;;;;;5114867;28;20059;-86
2022/12/19 01:27:37;;;;;;;25.83;15.93;;;;;;;;;;5115136;28;20092;-84
2022/12/19 01:30:05;;;;;;;25.10;14.50;;;;;;;;;;5116456;28;20103;-84
2022/12/19 01:32:31;;;;;;;30.42;18.08;;;;;;;;;;5115815;28;20057;-87
2022/12/19 01:34:57;;;;;;;27.77;15.98;;;;;;;;;;5116208;28;20359;-84
2022/12/19 01:37:26;;;;;;;25.88;15.55;;;;;;;;;;5116107;28;20030;-84
2022/12/19 01:39:52;;;;;;;26.38;16.98;;;;;;;;;;5114843;28;20055;-83
2022/12/19 01:42:20;;;;;;;30.67;15.52;;;;;;;;;;5116044;28;20027;-83
2022/12/19 01:45:06;;;;;;;26.52;13.18;;;;;;;;;;5115999;28;20054;-86
2022/12/19 01:47:34;;;;;;;25.98;14.45;;;;;;;;;;5094448;28;20043;-82
2022/12/19 01:50:01;;;;;;;24.73;14.05;;;;;;;;;;5115981;28;20063;-84
2022/12/19 01:52:27;;;;;;;31.30;17.17;;;;;;;;;;5114392;28;20432;-83
2022/12/19 01:54:54;;;;;;;20.45;12.02;;;;;;;;;;5115733;28;20023;-82
2022/12/19 01:57:20;;;;;;;25.50;14.43;;;;;;;;;;5114261;28;20064;-85
2022/12/19 01:59:55;;;;;;;26.00;14.57;;;;;;;;;;5115842;28;20034;-87
2022/12/19 02:02:24;;;;;;;22.38;13.50;;;;;;;;;;5115829;28;20031;-84
2022/12/19 02:04:50;;;;;;;29.10;17.30;;;;;;;;;;5115901;28;20023;-85
2022/12/19 02:07:18;;;;;;;23.58;14.25;;;;;;;;;;5115656;28;20111;-85
2022/12/19 02:09:48;;;;;;;26.73;17.17;;;;;;;;;;5114294;28;20027;-86
2022/12/19 02:12:14;;;;;;;26.95;14.75;;;;;;;;;;5114124;28;20482;-84
2022/12/19 02:14:41;;;;;;;25.92;15.68;;;;;;;;;;5115407;28;20085;-87
2022/12/19 02:17:26;;;;;;;27.67;15.05;;;;;;;;;;5113859;28;20058;-84
2022/12/19 02:19:55;;;;;;;26.08;15.70;;;;;;;;;;5113986;28;20020;-85
2022/12/19 02:22:30;;;;;;;25.52;14.90;;;;;;;;;;5114750;28;20024;-86
2022/12/19 02:24:56;;;;;;;22.27;13.65;;;;;;;;;;5115396;28;20024;-82
2022/12/19 02:27:41;;;;;;;26.63;15.68;;;;;;;;;;5114019;28;20035;-84
2022/12/19 02:30:09;;;;;;;25.25;15.25;;;;;;;;;;5115198;28;20076;-83
2022/12/19 02:32:44;;;;;;;25.40;15.63;;;;;;;;;;5114932;28;20019;-85
2022/12/19 02:35:28;;;;;;;21.40;12.25;;;;;;;;;;5115073;28;20023;-84
2022/12/19 02:38:05;;;;;;;26.17;14.68;;;;;;;;;;5113866;28;20493;-81
2022/12/19 02:40:33;;;;;;;28.30;15.52;;;;;;;;;;5116060;28;20072;-85
2022/12/19 02:43:01;;;;;;;26.75;14.95;;;;;;;;;;5113941;28;20088;-82
2022/12/19 02:45:30;;;;;;;28.48;16.10;;;;;;;;;;5114762;28;20475;-82
2022/12/19 02:47:58;;;;;;;19.95;12.43;;;;;;;;;;5113200;28;20028;-85
2022/12/19 02:50:24;;;;;;;26.73;15.90;;;;;;;;;;5114916;28;20081;-85
2022/12/19 02:52:50;;;;;;;28.35;16.48;;;;;;;;;;5113200;28;20154;-82
2022/12/19 02:55:19;;;;;;;28.30;16.55;;;;;;;;;;5113335;28;20027;-86
2022/12/19 02:57:55;;;;;;;28.73;16.35;;;;;;;;;;5113151;28;20102;-87
2022/12/19 03:00:22;;;;;;;27.38;15.45;;;;;;;;;;5113102;28;20051;-86
2022/12/19 03:03:07;;;;;;;24.67;16.63;;;;;;;;;;5114149;28;20462;-85
2022/12/19 03:05:36;;;;;;;28.48;15.00;;;;;;;;;;5112946;28;20027;-84
2022/12/19 03:08:02;;;;;;;26.98;14.98;;;;;;;;;;5114478;28;20020;-85
2022/12/19 03:10:47;;;;;;;28.02;15.30;;;;;;;;;;5113920;28;20103;-85
2022/12/19 03:13:13;;;;;;;;;;;;;;;;;;5113288;28;20355;-84
2022/12/19 03:15:40;;;;;;;25.50;15.43;;;;;;;;;;5121161;27;20056;-87
2022/12/19 03:18:06;;;;;;;28.88;15.88;;;;;;;;;;5134624;27;20027;-83
2022/12/19 03:20:32;;;;;;;24.70;14.10;;;;;;;;;;5134432;27;20047;-84
2022/12/19 03:22:58;;;;;;;27.70;15.68;;;;;;;;;;5116070;27;20541;-84
2022/12/19 03:25:25;;;;;;;28.65;15.60;;;;;;;;;;5115873;27;20027;-84
2022/12/19 03:27:52;;;;;;;27.92;16.90;;;;;;;;;;5115945;27;20034;-84
2022/12/19 03:30:18;;;;;;;34.28;18.15;;;;;;;;;;5134078;27;20030;-84
2022/12/19 03:32:46;;;;;;;28.38;17.13;;;;;;;;;;5134259;27;20513;-85
2022/12/19 03:35:15;;;;;;;27.67;17.38;;;;;;;;;;5133285;27;20469;-84
2022/12/19 03:37:42;;;;;;;28.63;18.08;;;;;;;;;;5115798;27;20143;-84
2022/12/19 03:40:10;;;;;;;30.95;19.15;;;;;;;;;;5134038;27;20057;-84
2022/12/19 03:45:26;;;;;;;31.17;18.17;;;;;;;;;;5134416;27;20038;-85
2022/12/19 03:47:56;;;;;;;26.23;16.63;;;;;;;;;;5115549;27;20031;-83
2022/12/19 03:50:24;;;;;;;34.35;18.85;;;;;;;;;;5133912;27;20069;-84
2022/12/19 03:53:08;;;;;;;29.65;16.27;;;;;;;;;;5133976;27;20102;-86
2022/12/19 03:55:43;;;;;;;27.83;16.45;;;;;;;;;;5115671;27;20045;-85
2022/12/19 03:58:10;;;;;;;29.73;16.30;;;;;;;;;;5115683;27;20063;-83
2022/12/19 04:00:37;;;;;;;28.48;16.42;;;;;;;;;;5133617;27;20023;-82
2022/12/19 04:03:04;;;;;;;32.83;16.35;;;;;;;;;;5115272;27;20457;-84
2022/12/19 04:05:31;;;;;;;31.95;17.15;;;;;;;;;;5133586;27;20026;-84
2022/12/19 04:08:00;;;;;;;27.92;17.63;;;;;;;;;;5115262;27;20023;-83
2022/12/19 04:10:27;;;;;;;31.63;16.75;;;;;;;;;;5098268;27;20071;-83
2022/12/19 04:12:57;;;;;;;27.63;16.58;;;;;;;;;;5115080;28;20019;-84
2022/12/19 04:15:33;;;;;;;29.60;17.30;;;;;;;;;;5133211;27;20165;-84
2022/12/19 04:18:00;;;;;;;32.03;18.05;;;;;;;;;;5133523;27;20374;-83
2022/12/19 04:20:27;;;;;;;29.08;17.73;;;;;;;;;;5114995;27;20053;-83
2022/12/19 04:22:56;;;;;;;33.05;17.30;;;;;;;;;;5133536;27;20152;-85
2022/12/19 04:25:25;;;;;;;31.15;18.83;;;;;;;;;;5114753;28;20057;-84
2022/12/19 04:27:53;;;;;;;29.55;17.55;;;;;;;;;;5114861;28;20359;-84
2022/12/19 04:30:19;;;;;;;33.08;17.92;;;;;;;;;;5114708;28;20027;-85
2022/12/19 04:32:46;;;;;;;29.70;17.42;;;;;;;;;;5114964;28;20106;-84
2022/12/19 04:35:13;;;;;;;34.50;19.13;;;;;;;;;;5114684;28;20026;-84
2022/12/19 04:37:39;;;;;;;31.40;19.20;;;;;;;;;;5114852;28;20027;-83
2022/12/19 04:40:07;;;;;;;30.65;16.75;;;;;;;;;;5114931;28;20030;-84
2022/12/19 04:42:33;;;;;;;29.25;16.50;;;;;;;;;;5114414;28;20115;-83
2022/12/19 04:44:59;;;;;;;29.25;16.70;;;;;;;;;;5133871;27;20023;-82
2022/12/19 04:47:25;;;;;;;33.08;18.00;;;;;;;;;;5118847;27;20031;-84
2022/12/19 04:49:51;;;;;;;28.67;17.00;;;;;;;;;;5137472;27;20030;-82
2022/12/19 04:52:17;;;;;;;30.90;17.33;;;;;;;;;;5136696;27;20106;-84
2022/12/19 04:54:43;;;;;;;30.00;18.33;;;;;;;;;;5137239;27;20050;-82
2022/12/19 04:57:09;;;;;;;30.02;17.48;;;;;;;;;;5118878;27;20019;-84
2022/12/19 04:59:36;;;;;;;31.90;18.15;;;;;;;;;;5136659;27;20474;-85
2022/12/19 05:02:02;;;;;;;29.08;18.05;;;;;;;;;;5118683;27;20559;-84
2022/12/19 05:04:28;;;;;;;33.03;19.75;;;;;;;;;;5117957;27;20080;-84
2022/12/19 05:06:54;;;;;;;30.42;19.73;;;;;;;;;;5137030;27;20050;-83
2022/12/19 05:09:20;;;;;;;29.48;17.25;;;;;;;;;;5137071;27;20019;-84
2022/12/19 05:11:46;;;;;;;33.30;19.27;;;;;;;;;;5118164;27;20292;-86
2022/12/19 05:14:12;;;;;;;30.20;17.42;;;;;;;;;;5102004;27;20043;-84
2022/12/19 05:16:38;;;;;;;28.77;17.92;;;;;;;;;;5117865;27;20160;-85
2022/12/19 05:19:04;;;;;;;36.30;19.33;;;;;;;;;;5137167;27;20103;-84
2022/12/19 05:21:30;;;;;;;33.53;19.27;;;;;;;;;;5136845;27;20500;-84
2022/12/19 05:23:56;;;;;;;31.73;17.98;;;;;;;;;;5118522;27;20024;-83
2022/12/19 05:26:22;;;;;;;36.63;20.27;;;;;;;;;;5118510;27;20023;-85
2022/12/19 05:28:49;;;;;;;31.15;18.48;;;;;;;;;;5136802;27;20034;-84
2022/12/19 05:31:19;;;;;;;31.15;18.50;;;;;;;;;;5118779;27;20023;-85
2022/12/19 05:33:46;;;;;;;30.05;17.80;;;;;;;;;;5137356;27;20080;-83
2022/12/19 05:36:12;;;;;;;30.73;17.08;;;;;;;;;;5138123;27;20027;-85
2022/12/19 05:38:38;;;;;;;30.23;17.45;;;;;;;;;;5118531;27;20413;-85
2022/12/19 05:41:09;;;;;;;24.83;16.25;;;;;;;;;;5118516;27;20026;-86
2022/12/19 05:43:35;;;;;;;38.05;20.00;;;;;;;;;;5117524;27;20023;-85
2022/12/19 05:46:01;;;;;;;31.90;17.23;;;;;;;;;;5117756;27;20115;-84
2022/12/19 05:48:27;;;;;;;37.50;20.20;;;;;;;;;;5136257;27;20038;-85
2022/12/19 05:50:53;;;;;;;32.20;18.80;;;;;;;;;;5117421;27;20030;-86
2022/12/19 05:53:19;;;;;;;30.27;15.88;;;;;;;;;;5100879;27;20543;-86
2022/12/19 05:55:46;;;;;;;34.22;20.08;;;;;;;;;;5117147;27;20106;-86
2022/12/19 05:58:12;;;;;;;30.85;17.13;;;;;;;;;;5116683;27;20041;-85
2022/12/19 06:00:38;;;;;;;34.83;19.13;;;;;;;;;;5135911;27;20021;-85
2022/12/19 06:03:04;;;;;;;31.98;18.75;;;;;;;;;;5117667;27;20050;-85
2022/12/19 06:05:31;;;;;;;29.17;17.65;;;;;;;;;;5135807;27;20102;-84
2022/12/19 06:07:57;;;;;;;35.30;19.38;;;;;;;;;;5135944;27;20046;-85
2022/12/19 06:10:23;;;;;;;34.65;19.13;;;;;;;;;;5117428;27;20047;-84
2022/12/19 06:12:50;;;;;;;33.70;17.80;;;;;;;;;;5117105;27;20120;-86
2022/12/19 06:15:16;;;;;;;35.40;19.27;;;;;;;;;;5135601;27;20397;-85
2022/12/19 06:17:42;;;;;;;32.28;18.50;;;;;;;;;;5135717;27;20027;-85
2022/12/19 06:20:08;;;;;;;33.72;18.92;;;;;;;;;;5116827;27;20122;-83
2022/12/19 06:22:35;;;;;;;33.45;19.35;;;;;;;;;;5116809;27;20079;-86
2022/12/19 06:25:01;;;;;;;31.20;17.85;;;;;;;;;;5134974;27;20023;-83
2022/12/19 06:27:30;;;;;;;34.08;18.02;;;;;;;;;;5115115;27;20019;-85
2022/12/19 06:29:57;;;;;;;32.08;18.42;;;;;;;;;;5133568;27;20023;-84
2022/12/19 06:32:23;;;;;;;32.00;18.42;;;;;;;;;;5114471;27;20042;-80
2022/12/19 06:34:52;;;;;;;32.40;17.55;;;;;;;;;;5109041;27;20027;-86
2022/12/19 06:37:18;;;;;;;37.13;20.70;;;;;;;;;;5106653;27;20023;-85
2022/12/19 06:39:44;;;;;;;34.85;19.27;;;;;;;;;;5122132;27;20126;-87
2022/12/19 06:44:56;;;;;;;31.58;17.05;;;;;;;;;;5135718;27;20038;-85
2022/12/19 06:47:22;;;;;;;31.50;18.60;;;;;;;;;;5116778;27;20115;-86
2022/12/19 06:49:54;;;;;;;36.53;19.00;;;;;;;;;;5116643;27;20591;-87
2022/12/19 06:52:21;;;;;;;29.50;16.25;;;;;;;;;;5133677;27;20031;-86
2022/12/19 06:54:47;;;;;;;32.63;18.17;;;;;;;;;;5115658;27;20390;-86
2022/12/19 06:57:13;;;;;;;34.53;19.05;;;;;;;;;;5115973;27;20794;-85
2022/12/19 06:59:39;;;;;;;30.05;16.75;;;;;;;;;;5134934;27;20027;-84
2022/12/19 07:02:18;;;;;;;32.88;18.45;;;;;;;;;;5116265;27;20442;-85
2022/12/19 07:04:47;;;;;;;32.85;19.10;;;;;;;;;;5134451;27;20023;-84
2022/12/19 07:07:13;;;;;;;36.88;19.92;;;;;;;;;;5105597;28;20039;-84
2022/12/19 07:09:39;;;;;;;33.08;17.58;;;;;;;;;;5109500;27;20051;-83
2022/12/19 07:12:12;;;;;;;35.38;19.52;;;;;;;;;;5132830;27;20038;-87
2022/12/19 07:14:38;;;;;;;33.20;18.60;;;;;;;;;;5116145;27;20031;-82
2022/12/19 07:17:05;;;;;;;28.45;17.52;;;;;;;;;;5134132;27;20095;-85
2022/12/19 07:19:32;;;;;;;38.00;19.95;;;;;;;;;;5119544;27;20046;-86
2022/12/19 07:22:00;;;;;;;34.22;18.52;;;;;;;;;;5095780;28;20023;-84
2022/12/19 07:24:35;;;;;;;36.38;19.35;;;;;;;;;;5090470;27;20078;-87
2022/12/19 07:27:01;;;;;;;29.83;17.02;;;;;;;;;;5115835;27;20034;-82
2022/12/19 07:29:27;;;;;;;32.60;18.80;;;;;;;;;;5132945;27;20092;-86
2022/12/19 07:31:54;;;;;;;48.95;23.17;;;;;;;;;;5113245;27;20431;-87
2022/12/19 07:34:20;;;;;;;36.13;23.33;;;;;;;;;;5109606;27;21361;-85
2022/12/19 07:36:46;;;;;;;60.28;37.15;;;;;;;;;;5133020;27;20127;-82
2022/12/19 07:39:12;;;;;;;43.13;24.42;;;;;;;;;;5114632;27;20408;-83
2022/12/19 07:41:38;;;;;;;29.35;17.70;;;;;;;;;;5130913;27;20023;-84
2022/12/19 07:44:05;;;;;;;32.88;15.85;;;;;;;;;;5098202;27;20028;-81
2022/12/19 07:46:31;;;;;;;35.35;20.23;;;;;;;;;;5128738;27;20088;-79
2022/12/19 07:48:57;;;;;;;35.50;19.35;;;;;;;;;;5101702;28;20065;-81
2022/12/19 07:51:23;;;;;;;33.00;18.17;;;;;;;;;;5119948;27;20067;-86
2022/12/19 07:53:49;;;;;;;30.00;17.02;;;;;;;;;;5104109;27;20028;-84
2022/12/19 07:56:16;;;;;;;30.70;17.23;;;;;;;;;;5101705;27;20114;-85
2022/12/19 07:58:43;;;;;;;33.25;19.88;;;;;;;;;;5099620;27;20538;-86
2022/12/19 08:01:11;;;;;;;30.92;19.13;;;;;;;;;;5113593;27;20035;-86
2022/12/19 08:03:37;;;;;;;29.45;17.60;;;;;;;;;;5133656;27;20102;-81
2022/12/19 08:06:04;;;;;;;31.98;19.45;;;;;;;;;;5114356;27;20026;-83
2022/12/19 08:08:30;;;;;;;30.77;18.92;;;;;;;;;;5107532;27;20485;-83
2022/12/19 08:11:08;;;;;;;29.35;17.52;;;;;;;;;;5129031;27;20615;-84
2022/12/19 08:13:37;;;;;;;29.60;17.50;;;;;;;;;;5101779;28;20024;-86
2022/12/19 08:16:04;;;;;;;38.03;22.65;;;;;;;;;;5082625;27;20514;-83
2022/12/19 08:18:32;;;;;;;33.60;22.30;;;;;;;;;;5125841;27;20108;-83
2022/12/19 08:20:58;;;;;;;29.55;17.50;;;;;;;;;;5102430;28;20059;-86
2022/12/19 08:23:24;;;;;;;31.60;17.05;;;;;;;;;;5095662;27;20109;-87
2022/12/19 08:26:11;;;;;;;30.02;18.70;;;;;;;;;;5105388;28;20397;-90
2022/12/19 08:28:41;;;;;;;30.33;16.77;;;;;;;;;;5115948;28;20389;-87
2022/12/19 08:31:14;;;;;;;28.13;16.85;;;;;;;;;;5087841;28;20458;-89
2022/12/19 08:33:41;;;;;;;29.77;16.13;;;;;;;;;;5128618;28;20025;-87
2022/12/19 08:36:17;;;;;;;34.15;18.35;;;;;;;;;;5095263;28;20040;-88
2022/12/19 08:38:43;;;;;;;31.23;18.92;;;;;;;;;;5106470;28;20073;-88
2022/12/19 08:41:18;;;;;;;31.60;18.92;;;;;;;;;;5105595;28;20034;-84
2022/12/19 08:43:55;;;;;;;32.85;19.63;;;;;;;;;;5107200;28;20019;-84
2022/12/19 08:46:21;;;;;;;27.35;16.20;;;;;;;;;;5096219;28;20080;-84
2022/12/19 08:48:47;;;;;;;26.80;15.98;;;;;;;;;;5123007;28;20462;-85
2022/12/19 08:51:14;;;;;;;31.40;18.08;;;;;;;;;;5122141;28;20027;-84
2022/12/19 08:53:40;;;;;;;27.85;16.10;;;;;;;;;;5110346;28;20088;-89
2022/12/19 08:56:15;;;;;;;30.05;17.73;;;;;;;;;;5119905;28;20095;-87
2022/12/19 09:01:33;;;;;;;29.30;18.23;;;;;;;;;;5129952;28;20039;-84
2022/12/19 09:03:59;;;;;;;31.35;18.65;;;;;;;;;;5104361;28;20031;-84
2022/12/19 09:06:26;;;;;;;30.17;15.55;;;;;;;;;;5112600;28;20015;-86
2022/12/19 09:08:58;;;;;;;29.85;16.25;;;;;;;;;;5131132;28;20469;-86
2022/12/19 09:11:24;;;;;;;27.33;16.98;;;;;;;;;;5114316;28;20452;-84
2022/12/19 09:14:00;;;;;;;23.63;14.35;;;;;;;;;;5128891;28;20100;-85
2022/12/19 09:16:27;;;;;;;28.45;17.40;;;;;;;;;;5127105;28;20498;-81
2022/12/19 09:18:55;;;;;;;27.38;16.98;;;;;;;;;;5131779;28;20047;-80
2022/12/19 09:21:22;;;;;;;27.85;16.40;;;;;;;;;;5132225;28;20011;-81
2022/12/19 09:24:03;;;;;;;26.35;16.23;;;;;;;;;;5131406;28;20382;-79
2022/12/19 09:26:31;;;;;;;28.52;17.23;;;;;;;;;;5113497;28;20038;-81
2022/12/19 09:28:58;;;;;;;27.13;14.48;;;;;;;;;;5127527;28;20023;-83
2022/12/19 09:31:24;;;;;;;26.55;14.93;;;;;;;;;;5105771;27;20102;-82
2022/12/19 09:33:51;;;;;;;23.88;15.13;;;;;;;;;;5132183;27;20027;-83
2022/12/19 09:36:19;;;;;;;295.77;88.63;;;;;;;;;;5119376;27;20020;-85
2022/12/19 09:38:48;;;;;;;93.05;36.00;;;;;;;;;;5109239;27;20042;-88
2022/12/19 09:41:23;;;;;;;24.23;15.35;;;;;;;;;;5108385;27;20666;-89
2022/12/19 09:44:10;;;;;;;30.83;19.13;;;;;;;;;;5108248;27;20027;-85
2022/12/19 09:46:43;;;;;;;22.08;14.38;;;;;;;;;;5126715;27;20030;-86
2022/12/19 09:49:13;;;;;;;27.25;17.08;;;;;;;;;;5127159;27;20030;-83
2022/12/19 09:51:58;;;;;;;31.17;17.27;;;;;;;;;;5127258;27;20115;-86
2022/12/19 09:54:24;;;;;;;;;;;;;;;;;;5103953;28;20031;-83
2022/12/19 09:56:53;;;;;;;27.45;18.20;;;;;;;;;;5102105;27;19907;-83
2022/12/19 09:59:31;;;;;;;25.48;13.77;;;;;;;;;;5111299;27;20019;-83
2022/12/19 10:02:16;;;;;;;30.10;16.35;;;;;;;;;;5125436;27;20031;-83
2022/12/19 10:04:47;;;;;;;22.48;12.73;;;;;;;;;;5104797;27;20389;-85
2022/12/19 10:07:14;;;;;;;25.90;15.57;;;;;;;;;;5121331;27;20484;-82
2022/12/19 10:09:40;;;;;;;23.20;13.93;;;;;;;;;;5121550;27;20111;-87
2022/12/19 10:12:21;;;;;;;21.33;13.27;;;;;;;;;;5122847;27;20070;-86
2022/12/19 10:15:08;;;;;;;25.63;17.40;;;;;;;;;;5119783;27;20024;-85
2022/12/19 10:17:52;;;;;;;21.90;13.82;;;;;;;;;;5123948;27;20088;-84
2022/12/19 10:20:48;;;;;;;24.33;15.10;;;;;;;;;;5118812;27;20032;-86
2022/12/19 10:23:14;;;;;;;;;;;;;;;;;;5106625;27;20402;-87
2022/12/19 10:25:40;;;;;;;24.92;13.75;;;;;;;;;;5126440;27;19908;-85
2022/12/19 10:28:16;;;;;;;21.75;13.52;;;;;;;;;;5111346;27;20024;-81
2022/12/19 10:30:44;;;;;;;25.00;15.07;;;;;;;;;;5134369;27;20377;-82
2022/12/19 10:33:18;;;;;;;26.17;16.63;;;;;;;;;;5133775;27;20026;-83
2022/12/19 10:35:48;;;;;;;33.42;19.88;;;;;;;;;;5100109;27;20027;-87
2022/12/19 10:38:14;;;;;;;26.00;15.75;;;;;;;;;;5107311;27;20423;-80
2022/12/19 10:40:59;;;;;;;23.88;15.80;;;;;;;;;;5121573;27;20095;-79
2022/12/19 10:43:40;;;;;;;27.45;17.88;;;;;;;;;;5127617;27;20026;-85
2022/12/19 10:46:13;;;;;;;21.25;14.05;;;;;;;;;;5119131;27;20031;-85
2022/12/19 10:48:39;;;;;;;22.73;13.15;;;;;;;;;;5118317;27;20076;-86
2022/12/19 10:51:09;;;;;;;25.48;17.75;;;;;;;;;;5101951;27;20054;-84
2022/12/19 10:53:36;;;;;;;25.00;17.50;;;;;;;;;;5109614;27;20043;-83
2022/12/19 10:56:11;;;;;;;26.45;16.08;;;;;;;;;;5124612;27;20034;-83
2022/12/19 10:58:37;;;;;;;32.53;18.83;;;;;;;;;;5118980;27;20031;-80
2022/12/19 11:01:12;;;;;;;26.13;17.67;;;;;;;;;;5124686;27;20027;-84
2022/12/19 11:03:48;;;;;;;26.52;14.75;;;;;;;;;;5112515;27;20023;-84
2022/12/19 11:06:33;;;;;;;209.68;66.45;;;;;;;;;;5115834;27;20039;-81
2022/12/19 11:09:18;;;;;;;74.63;30.45;;;;;;;;;;5130143;27;20481;-83
2022/12/19 11:11:46;;;;;;;22.85;15.52;;;;;;;;;;5131255;27;20032;-85
2022/12/19 11:14:25;;;;;;;22.33;14.70;;;;;;;;;;5117767;27;20026;-84
2022/12/19 11:16:51;;;;;;;21.98;13.60;;;;;;;;;;5099295;27;20134;-83
2022/12/19 11:19:43;;;;;;;21.95;13.95;;;;;;;;;;5128071;27;20027;-86
2022/12/19 11:22:18;;;;;;;31.33;18.20;;;;;;;;;;5117739;27;20039;-83
2022/12/19 11:24:48;;;;;;;25.05;17.08;;;;;;;;;;5126078;27;20034;-84
2022/12/19 11:27:30;;;;;;;24.05;16.88;;;;;;;;;;5122026;27;20027;-86
2022/12/19 11:29:57;;;;;;;26.45;17.42;;;;;;;;;;5101720;27;20030;-82
2022/12/19 11:32:42;;;;;;;19.80;12.75;;;;;;;;;;5127951;27;20528;-83
2022/12/19 11:35:27;;;;;;;29.90;19.52;;;;;;;;;;5126450;27;20027;-81
2022/12/19 11:37:56;;;;;;;22.60;13.38;;;;;;;;;;5129657;27;20078;-85
2022/12/19 11:40:41;;;;;;;21.33;15.73;;;;;;;;;;5124257;27;20034;-84
2022/12/19 11:43:13;;;;;;;24.17;15.75;;;;;;;;;;5114467;27;20110;-85
2022/12/19 11:45:58;;;;;;;24.65;15.68;;;;;;;;;;5132119;27;20050;-85
2022/12/19 11:48:36;;;;;;;23.13;13.65;;;;;;;;;;5112476;27;20034;-84
2022/12/19 11:51:21;;;;;;;24.50;14.90;;;;;;;;;;5130820;27;20027;-86
2022/12/19 11:53:52;;;;;;;19.98;13.27;;;;;;;;;;5110692;27;20093;-85
2022/12/19 11:56:21;;;;;;;18.85;12.27;;;;;;;;;;5107099;27;20034;-83
2022/12/19 11:59:13;;;;;;;17.85;11.65;;;;;;;;;;5132033;27;20491;-91
2022/12/19 12:01:46;;;;;;;18.63;12.52;;;;;;;;;;5126652;27;20039;-88
2022/12/19 12:04:31;;;;;;;27.00;15.35;;;;;;;;;;5111854;28;20486;-85
2022/12/19 12:10:11;;;;;;;28.85;14.77;;;;;;;;;;5123026;27;19911;-88
2022/12/19 12:13:09;;;;;;;33.38;16.77;;;;;;;;;;5109296;27;20390;-88
2022/12/19 12:16:02;;;;;;;39.78;18.35;;;;;;;;;;5106516;28;20204;-87
2022/12/19 12:21:39;;;;;;;20.92;12.40;;;;;;;;;;5127205;27;20386;-88
2022/12/19 12:24:08;;;;;;;22.70;15.23;;;;;;;;;;5112201;27;20075;-85
2022/12/19 12:26:41;;;;;;;30.67;19.77;;;;;;;;;;5106188;28;20035;-87
2022/12/19 12:29:10;;;;;;;23.23;15.50;;;;;;;;;;5121392;28;20490;-86
2022/12/19 12:31:39;;;;;;;20.10;12.75;;;;;;;;;;5108604;28;20477;-86
2022/12/19 12:34:26;;;;;;;37.78;19.67;;;;;;;;;;5121004;28;20451;-83
2022/12/19 12:37:00;;;;;;;22.45;12.98;;;;;;;;;;5109402;28;20016;-86
2022/12/19 12:39:29;;;;;;;27.38;15.65;;;;;;;;;;5128748;28;20019;-87
2022/12/19 12:42:35;;;;;;;24.65;16.42;;;;;;;;;;5096484;28;20031;-90
2022/12/19 12:45:08;;;;;;;26.73;15.23;;;;;;;;;;5116593;28;20038;-84
2022/12/19 12:47:35;;;;;;;23.40;16.25;;;;;;;;;;5120791;28;20465;-85
2022/12/19 12:50:02;;;;;;;21.60;14.77;;;;;;;;;;5126190;28;20023;-85
2022/12/19 12:52:39;;;;;;;23.17;15.75;;;;;;;;;;5126112;28;20034;-85
2022/12/19 12:55:14;;;;;;;22.13;15.25;;;;;;;;;;5122858;28;20023;-88
2022/12/19 12:57:43;;;;;;;21.98;13.23;;;;;;;;;;5109286;28;20024;-84
2022/12/19 13:00:26;;;;;;;20.02;13.00;;;;;;;;;;5108673;28;20027;-89
2022/12/19 13:02:52;;;;;;;25.40;14.98;;;;;;;;;;5120587;28;20046;-86
2022/12/19 13:05:27;;;;;;;22.75;15.48;;;;;;;;;;5128854;28;20031;-86
2022/12/19 13:07:54;;;;;;;21.73;14.55;;;;;;;;;;5129096;27;20500;-85
2022/12/19 13:10:20;;;;;;;350.13;115.95;;;;;;;;;;5126708;27;20035;-84
2022/12/19 13:13:02;;;;;;;286.80;104.43;;;;;;;;;;5111257;27;20027;-87
2022/12/19 13:15:36;;;;;;;213.27;76.50;;;;;;;;;;5112412;27;20070;-84
2022/12/19 13:18:23;;;;;;;27.02;16.33;;;;;;;;;;5118105;27;20423;-86
2022/12/19 13:20:49;;;;;;;20.88;14.63;;;;;;;;;;5128650;27;20058;-88
2022/12/19 13:23:21;;;;;;;21.42;15.10;;;;;;;;;;5134624;27;20577;-85
2022/12/19 13:25:52;;;;;;;25.85;16.85;;;;;;;;;;5132763;27;20033;-85
2022/12/19 13:28:21;;;;;;;21.30;14.23;;;;;;;;;;5124036;27;20081;-83
2022/12/19 13:31:10;;;;;;;25.33;16.13;;;;;;;;;;5131340;27;20028;-84
2022/12/19 13:33:55;;;;;;;30.33;16.95;;;;;;;;;;5125831;27;20027;-84
2022/12/19 13:36:42;;;;;;;24.30;16.73;;;;;;;;;;5114198;27;20497;-89
2022/12/19 13:39:20;;;;;;;30.30;20.52;;;;;;;;;;5112011;27;20035;-85
2022/12/19 13:44:38;;;;;;;30.05;20.23;;;;;;;;;;5127958;27;20058;-87
2022/12/19 13:47:05;;;;;;;33.17;22.33;;;;;;;;;;5112210;27;20394;-83
2022/12/19 13:49:32;;;;;;;30.25;19.63;;;;;;;;;;5113268;27;20109;-83
2022/12/19 13:55:13;;;;;;;24.17;17.75;;;;;;;;;;5108822;27;20034;-84
2022/12/19 13:57:40;;;;;;;43.10;27.40;;;;;;;;;;5108221;27;20020;-86
2022/12/19 14:00:08;;;;;;;202.10;74.85;;;;;;;;;;5128267;27;20149;-86
2022/12/19 14:02:37;;;;;;;94.18;64.13;;;;;;;;;;5127503;27;20127;-89
2022/12/19 14:05:03;;;;;;;133.13;67.80;;;;;;;;;;5113796;27;20516;-81
2022/12/19 14:07:38;;;;;;;124.82;58.33;;;;;;;;;;5133080;27;20083;-84
2022/12/19 14:10:22;;;;;;;27.42;18.52;;;;;;;;;;5134849;27;20058;-86
2022/12/19 14:15:40;;;;;;;38.20;23.13;;;;;;;;;;5129767;27;20047;-85
2022/12/19 14:18:15;;;;;;;34.03;22.20;;;;;;;;;;5110695;27;20031;-84
2022/12/19 14:20:44;;;;;;;34.78;23.23;;;;;;;;;;5136704;27;20054;-86
2022/12/19 14:23:10;;;;;;;32.75;22.80;;;;;;;;;;5135617;27;20030;-84
2022/12/19 14:25:39;;;;;;;33.13;21.58;;;;;;;;;;5135067;27;20068;-84
2022/12/19 14:28:12;;;;;;;34.47;21.85;;;;;;;;;;5112928;27;20547;-84
2022/12/19 14:30:40;;;;;;;34.50;21.70;;;;;;;;;;5114356;28;20027;-83
2022/12/19 14:33:17;;;;;;;33.75;22.48;;;;;;;;;;5111177;27;20023;-83
2022/12/19 14:35:48;;;;;;;41.13;25.23;;;;;;;;;;5146105;27;20030;-85
2022/12/19 14:38:27;;;;;;;44.05;28.83;;;;;;;;;;5116873;27;20023;-83
2022/12/19 14:40:53;;;;;;;44.40;28.38;;;;;;;;;;5134909;27;20474;-85
2022/12/19 14:43:39;;;;;;;44.97;28.05;;;;;;;;;;5134792;27;20382;-85
2022/12/19 14:46:20;;;;;;;48.85;31.40;;;;;;;;;;5135297;27;20316;-83
2022/12/19 14:49:16;;;;;;;56.65;33.03;;;;;;;;;;5144647;27;20019;-83
2022/12/19 14:51:42;;;;;;;53.20;32.53;;;;;;;;;;5131234;27;20039;-85
2022/12/19 14:54:08;;;;;;;51.75;31.80;;;;;;;;;;5154455;27;20022;-84
2022/12/19 14:56:53;;;;;;;55.55;34.75;;;;;;;;;;5131478;27;20023;-86
2022/12/19 14:59:40;;;;;;;65.15;38.03;;;;;;;;;;5116373;27;20019;-83
2022/12/19 15:02:06;;;;;;;63.92;45.15;;;;;;;;;;5134204;27;20050;-86